Time;durP1;ratioP1;P1;durP2;ratioP2;P2;SDS_P1;SDS_P2;PMS_P1;PMS_P2;Temp;Humidity;BMP_temperature;BMP_pressure;BME280_temperature;BME280_humidity;BME280_pressure;Samples;Min_cycle;Max_cycle;Signal;HPM_P1;HPM_P2
2022/07/03 00:01:28;;;;;;;3.00;2.80;;;19.40;94.20;;;;;;5057581;28;20189;-69
2022/07/03 00:03:54;;;;;;;3.07;2.87;;;19.40;94.30;;;;;;5054837;28;20403;-69
2022/07/03 00:06:19;;;;;;;2.43;2.30;;;19.40;94.40;;;;;;5054664;28;20176;-69
2022/07/03 00:08:45;;;;;;;3.27;2.57;;;19.30;94.50;;;;;;5054566;28;20307;-69
2022/07/03 00:11:11;;;;;;;2.60;2.40;;;19.30;94.70;;;;;;5054758;28;20174;-69
2022/07/03 00:13:37;;;;;;;2.83;2.57;;;19.30;94.90;;;;;;5054674;28;20723;-69
2022/07/03 00:16:02;;;;;;;2.90;2.60;;;19.20;95.10;;;;;;5054555;28;20439;-69
2022/07/03 00:18:28;;;;;;;2.77;2.57;;;19.20;95.20;;;;;;5055039;28;20615;-70
2022/07/03 00:21:05;;;;;;;2.73;2.20;;;19.10;95.40;;;;;;5054959;28;20169;-70
2022/07/03 00:23:46;;;;;;;2.70;2.40;;;19.10;95.50;;;;;;5054506;28;20532;-70
2022/07/03 00:26:13;;;;;;;3.90;2.90;;;19.10;95.80;;;;;;5054082;28;20807;-70
2022/07/03 00:28:40;;;;;;;4.57;3.37;;;19.00;95.90;;;;;;5054156;28;20494;-70
2022/07/03 00:31:07;;;;;;;3.10;2.80;;;19.00;96.10;;;;;;5054346;28;20416;-70
2022/07/03 00:33:35;;;;;;;3.30;3.00;;;18.90;96.20;;;;;;5054239;28;20506;-70
2022/07/03 00:36:02;;;;;;;2.50;2.30;;;18.90;96.40;;;;;;5054145;28;20398;-70
2022/07/03 00:38:28;;;;;;;2.30;2.10;;;18.90;96.60;;;;;;5054100;28;20440;-70
2022/07/03 00:40:53;;;;;;;3.77;2.87;;;18.90;96.70;;;;;;5054519;28;20409;-70
2022/07/03 00:43:20;;;;;;;3.50;3.20;;;18.80;97.00;;;;;;5054100;28;20256;-71
2022/07/03 00:45:48;;;;;;;4.23;2.83;;;18.80;97.10;;;;;;5053540;28;20170;-70
2022/07/03 00:48:16;;;;;;;3.63;3.33;;;18.70;97.30;;;;;;5054004;28;20470;-70
2022/07/03 00:50:51;;;;;;;2.53;2.33;;;18.70;97.50;;;;;;5054156;28;20431;-70
2022/07/03 00:53:31;;;;;;;2.50;2.30;;;18.70;97.70;;;;;;5053769;28;20407;-69
2022/07/03 00:55:59;;;;;;;2.93;2.73;;;18.70;97.90;;;;;;5053576;28;20431;-69
2022/07/03 00:58:25;;;;;;;3.33;3.03;;;18.70;98.10;;;;;;5035979;28;20431;-69
2022/07/03 01:00:52;;;;;;;3.27;3.00;;;18.60;98.30;;;;;;5053859;28;20968;-70
2022/07/03 01:03:21;;;;;;;3.63;3.33;;;18.60;98.50;;;;;;5053796;28;20710;-69
2022/07/03 01:05:54;;;;;;;2.67;2.47;;;18.60;98.50;;;;;;5053426;28;20412;-70
2022/07/03 01:08:36;;;;;;;5.00;3.10;;;18.50;98.80;;;;;;5054747;28;20486;-70
2022/07/03 01:11:35;;;;;;;2.60;2.43;;;18.50;99.40;;;;;;5057473;28;20788;-70
2022/07/03 01:14:06;;;;;;;3.07;2.87;;;18.50;99.30;;;;;;5057569;28;20401;-70
2022/07/03 01:16:49;;;;;;;3.30;3.07;;;18.40;99.50;;;;;;5050390;28;20400;-69
2022/07/03 01:19:36;;;;;;;3.03;2.83;;;18.40;99.70;;;;;;5053401;28;20415;-69
2022/07/03 01:22:02;;;;;;;2.93;2.73;;;18.40;99.80;;;;;;5053300;28;20403;-69
2022/07/03 01:25:06;;;;;;;3.30;3.10;;;18.40;99.90;;;;;;5053252;28;20420;-69
2022/07/03 01:27:48;;;;;;;3.07;2.87;;;18.40;99.90;;;;;;5051986;28;20227;-69
2022/07/03 01:30:13;;;;;;;5.07;3.03;;;18.30;99.90;;;;;;5053274;28;20804;-69
2022/07/03 01:32:45;;;;;;;3.43;3.13;;;18.30;99.90;;;;;;5053005;28;20404;-69
2022/07/03 01:35:13;;;;;;;3.60;3.30;;;18.30;99.90;;;;;;5052997;28;20173;-69
2022/07/03 01:37:40;;;;;;;2.87;2.67;;;18.30;99.90;;;;;;5053033;28;20492;-70
2022/07/03 01:40:07;;;;;;;3.40;3.10;;;18.30;99.90;;;;;;5052874;28;20469;-69
2022/07/03 01:42:34;;;;;;;3.30;3.10;;;18.20;99.90;;;;;;5053207;28;20909;-69
2022/07/03 01:45:00;;;;;;;3.03;2.40;;;18.30;99.90;;;;;;5052426;28;20432;-70
2022/07/03 01:47:26;;;;;;;2.60;2.40;;;18.20;99.90;;;;;;5052644;28;21113;-69
2022/07/03 01:49:54;;;;;;;3.30;3.00;;;18.20;99.90;;;;;;5053022;28;20623;-69
2022/07/03 01:52:21;;;;;;;3.00;2.70;;;18.10;99.90;;;;;;5052565;28;20494;-69
2022/07/03 01:54:47;;;;;;;4.80;4.30;;;18.10;99.90;;;;;;5052404;28;20407;-69
2022/07/03 01:57:14;;;;;;;3.90;2.93;;;18.10;99.90;;;;;;5052768;28;20423;-69
2022/07/03 01:59:39;;;;;;;3.30;3.00;;;18.00;99.90;;;;;;5052255;28;20407;-69
2022/07/03 02:02:24;;;;;;;3.30;3.00;;;18.00;99.90;;;;;;5052718;28;20395;-69
2022/07/03 02:05:28;;;;;;;3.10;2.90;;;18.00;99.90;;;;;;5052694;28;20167;-69
2022/07/03 02:08:10;;;;;;;3.57;2.93;;;18.00;99.90;;;;;;5021250;28;20462;-69
2022/07/03 02:10:40;;;;;;;4.70;3.43;;;18.00;99.90;;;;;;5052745;28;20420;-70
2022/07/03 02:13:27;;;;;;;4.47;2.67;;;17.90;99.90;;;;;;5052769;28;20901;-69
2022/07/03 02:15:57;;;;;;;3.47;3.03;;;17.90;99.90;;;;;;5052168;28;20399;-69
2022/07/03 02:18:35;;;;;;;4.17;2.40;;;17.90;99.90;;;;;;5052236;28;20870;-70
2022/07/03 02:21:19;;;;;;;3.63;3.20;;;17.90;99.90;;;;;;5052499;28;20406;-69
2022/07/03 02:24:00;;;;;;;3.73;2.70;;;17.90;99.90;;;;;;5052181;28;20928;-69
2022/07/03 02:26:38;;;;;;;3.20;2.90;;;17.80;99.90;;;;;;5052162;28;20439;-69
2022/07/03 02:29:06;;;;;;;4.63;3.37;;;17.80;99.90;;;;;;5052310;28;20465;-69
2022/07/03 02:31:44;;;;;;;3.17;2.90;;;17.80;99.90;;;;;;5052218;28;20442;-69
2022/07/03 02:34:16;;;;;;;3.40;3.20;;;17.70;99.90;;;;;;5052368;28;20407;-69
2022/07/03 02:36:49;;;;;;;3.57;3.27;;;17.60;99.90;;;;;;5052222;28;20402;-69
2022/07/03 02:39:25;;;;;;;3.00;2.80;;;17.60;99.90;;;;;;5052040;28;20421;-69
2022/07/03 02:41:57;;;;;;;3.50;3.20;;;17.60;99.90;;;;;;5052106;28;20415;-70
2022/07/03 02:44:44;;;;;;;3.03;2.70;;;17.60;99.90;;;;;;5052080;28;20910;-69
2022/07/03 02:47:29;;;;;;;3.30;3.03;;;17.60;99.90;;;;;;5052103;28;20536;-69
2022/07/03 02:50:08;;;;;;;3.03;2.83;;;17.50;99.90;;;;;;5052144;28;20399;-69
2022/07/03 02:52:42;;;;;;;2.97;2.77;;;17.50;99.90;;;;;;5052254;28;20401;-69
2022/07/03 02:55:08;;;;;;;2.90;2.70;;;17.50;99.90;;;;;;5052137;28;20390;-70
2022/07/03 02:57:39;;;;;;;4.73;3.90;;;17.50;99.90;;;;;;5053539;28;20512;-70
2022/07/03 03:00:07;;;;;;;3.63;3.23;;;17.50;99.90;;;;;;5059992;28;20179;-69
2022/07/03 03:02:53;;;;;;;3.77;3.37;;;17.60;99.90;;;;;;5052717;28;20411;-69
2022/07/03 03:05:27;;;;;;;3.87;3.57;;;17.50;99.90;;;;;;5054153;28;20412;-69
2022/07/03 03:08:32;;;;;;;4.00;3.60;;;17.50;99.90;;;;;;5053464;28;20459;-69
2022/07/03 03:11:05;;;;;;;3.73;3.40;;;17.50;99.90;;;;;;5021383;28;20407;-70
2022/07/03 03:13:32;;;;;;;4.27;3.07;;;17.50;99.90;;;;;;5052115;28;20413;-69
2022/07/03 03:16:07;;;;;;;3.40;2.87;;;17.40;99.90;;;;;;5052026;28;20992;-69
2022/07/03 03:18:36;;;;;;;3.33;3.03;;;17.40;99.90;;;;;;5052125;28;20813;-69
2022/07/03 03:21:03;;;;;;;3.57;3.30;;;17.50;99.90;;;;;;5034052;28;20426;-69
2022/07/03 03:23:42;;;;;;;3.60;3.20;;;17.40;99.90;;;;;;5052494;28;20443;-69
2022/07/03 03:26:08;;;;;;;4.03;3.17;;;17.50;99.90;;;;;;5052263;28;20455;-69
2022/07/03 03:28:34;;;;;;;3.40;3.10;;;17.40;99.90;;;;;;5055545;28;20460;-70
2022/07/03 03:31:00;;;;;;;3.93;3.27;;;17.40;99.90;;;;;;5056169;28;20447;-70
2022/07/03 03:33:26;;;;;;;3.67;3.37;;;17.40;99.90;;;;;;5056918;28;20409;-71
2022/07/03 03:35:52;;;;;;;3.90;3.40;;;17.40;99.90;;;;;;5059786;28;20409;-70
2022/07/03 03:38:17;;;;;;;3.80;3.00;;;17.50;99.90;;;;;;5060037;28;20422;-69
2022/07/03 03:40:44;;;;;;;3.50;3.03;;;17.40;99.90;;;;;;5059844;28;20530;-69
2022/07/03 03:43:09;;;;;;;3.00;2.70;;;17.50;99.90;;;;;;5061735;28;20172;-70
2022/07/03 03:45:35;;;;;;;4.60;3.70;;;17.50;99.90;;;;;;5062126;28;20410;-69
2022/07/03 03:48:01;;;;;;;4.27;3.00;;;17.50;99.90;;;;;;5061725;28;20201;-69
2022/07/03 03:50:27;;;;;;;3.90;2.93;;;17.50;99.90;;;;;;5062597;28;20635;-69
2022/07/03 03:52:53;;;;;;;4.40;3.13;;;17.60;99.90;;;;;;5063215;28;20409;-70
2022/07/03 03:55:18;;;;;;;3.70;3.30;;;17.60;99.90;;;;;;5068302;28;20165;-70
2022/07/03 03:57:44;;;;;;;3.77;3.40;;;17.70;99.90;;;;;;5068953;28;20209;-70
2022/07/03 04:00:10;;;;;;;3.63;3.33;;;17.70;99.90;;;;;;5068479;28;20545;-70
2022/07/03 04:02:35;;;;;;;5.73;3.57;;;17.80;99.90;;;;;;5060386;28;20693;-70
2022/07/03 04:05:01;;;;;;;4.03;3.23;;;17.80;99.90;;;;;;5055111;28;20415;-70
2022/07/03 04:07:27;;;;;;;3.10;2.90;;;17.90;99.90;;;;;;5055276;28;20226;-70
2022/07/03 04:09:52;;;;;;;3.17;2.87;;;17.90;99.90;;;;;;5054936;28;20173;-69
2022/07/03 04:12:18;;;;;;;4.33;3.43;;;18.00;99.90;;;;;;5054876;28;20163;-69
2022/07/03 04:14:43;;;;;;;3.10;2.77;;;18.00;99.90;;;;;;5054695;28;20176;-69
2022/07/03 04:17:09;;;;;;;3.23;3.03;;;18.00;99.90;;;;;;5054453;28;20200;-69
2022/07/03 04:19:34;;;;;;;3.60;3.30;;;18.20;99.90;;;;;;5054671;28;20175;-69
2022/07/03 04:22:00;;;;;;;3.63;2.93;;;18.70;99.90;;;;;;5054554;28;20174;-69
2022/07/03 04:24:26;;;;;;;3.10;2.70;;;19.90;99.90;;;;;;5036766;28;20174;-69
2022/07/03 04:26:51;;;;;;;2.53;2.33;;;20.80;99.90;;;;;;5054488;28;20665;-70
2022/07/03 04:29:17;;;;;;;3.10;2.73;;;21.70;99.90;;;;;;5054626;28;20182;-69
2022/07/03 04:31:43;;;;;;;3.37;3.07;;;22.40;99.90;;;;;;5054612;28;20211;-69
2022/07/03 04:34:08;;;;;;;2.93;2.63;;;23.00;99.90;;;;;;5054564;28;20180;-70
2022/07/03 04:36:34;;;;;;;2.80;2.60;;;22.30;99.90;;;;;;5054429;28;20204;-71
2022/07/03 04:38:59;;;;;;;3.27;2.90;;;22.80;99.60;;;;;;5035392;28;20228;-69
2022/07/03 04:41:25;;;;;;;2.57;2.37;;;23.00;99.30;;;;;;5054356;28;20172;-70
2022/07/03 04:43:51;;;;;;;2.97;2.67;;;23.60;98.30;;;;;;5054971;28;20699;-70
2022/07/03 04:46:16;;;;;;;2.57;2.37;;;23.20;97.80;;;;;;5061805;28;20205;-70
2022/07/03 04:48:42;;;;;;;2.97;2.77;;;23.50;97.70;;;;;;5055043;28;20684;-69
2022/07/03 04:51:07;;;;;;;2.30;2.13;;;23.90;97.00;;;;;;5054169;28;20171;-70
2022/07/03 04:53:33;;;;;;;4.17;2.40;;;23.00;97.80;;;;;;5053907;28;20181;-70
2022/07/03 04:55:58;;;;;;;2.70;2.50;;;22.60;98.40;;;;;;5053799;28;20206;-70
2022/07/03 04:58:25;;;;;;;2.93;2.67;;;22.20;99.00;;;;;;5053855;28;20202;-70
2022/07/03 05:00:50;;;;;;;2.73;2.53;;;22.50;99.20;;;;;;5053747;28;20200;-70
2022/07/03 05:03:16;;;;;;;3.27;2.97;;;22.00;99.40;;;;;;5053561;28;20811;-69
2022/07/03 05:05:41;;;;;;;4.27;2.87;;;22.50;98.90;;;;;;5053692;28;20639;-70
2022/07/03 05:08:07;;;;;;;4.20;2.83;;;23.10;98.30;;;;;;5053548;28;20229;-70
2022/07/03 05:10:32;;;;;;;2.77;2.57;;;23.00;97.80;;;;;;5035825;28;20582;-71
2022/07/03 05:12:58;;;;;;;2.30;2.20;;;23.40;97.80;;;;;;5053610;28;20636;-70
2022/07/03 05:15:24;;;;;;;3.00;2.80;;;23.10;98.10;;;;;;5053547;28;20205;-70
2022/07/03 05:17:49;;;;;;;2.77;2.57;;;24.50;96.30;;;;;;5053209;28;20694;-70
2022/07/03 05:20:24;;;;;;;2.90;2.53;;;23.70;96.10;;;;;;5053696;28;20179;-70
2022/07/03 05:23:00;;;;;;;3.47;2.70;;;23.70;96.20;;;;;;5053540;28;20197;-69
2022/07/03 05:25:28;;;;;;;2.33;2.20;;;24.80;95.50;;;;;;5053014;28;20420;-69
2022/07/03 05:27:54;;;;;;;2.63;2.43;;;23.70;96.10;;;;;;5053019;28;20461;-69
2022/07/03 05:30:23;;;;;;;2.10;2.00;;;23.60;96.00;;;;;;5053404;28;20842;-69
2022/07/03 05:32:50;;;;;;;2.80;2.60;;;24.40;95.30;;;;;;5053243;28;20488;-69
2022/07/03 05:35:16;;;;;;;3.00;2.17;;;24.40;94.80;;;;;;5053177;28;20491;-69
2022/07/03 05:37:42;;;;;;;2.60;2.40;;;24.80;94.40;;;;;;5053158;28;20437;-70
2022/07/03 05:40:08;;;;;;;2.70;2.50;;;25.00;93.40;;;;;;5053071;28;20167;-69
2022/07/03 05:42:34;;;;;;;2.87;2.60;;;24.30;93.60;;;;;;5053013;28;20428;-69
2022/07/03 05:45:00;;;;;;;2.80;2.60;;;24.30;94.40;;;;;;5052411;28;20501;-69
2022/07/03 05:47:25;;;;;;;2.27;2.07;;;25.10;93.40;;;;;;5052803;28;20669;-69
2022/07/03 05:49:51;;;;;;;2.10;1.93;;;25.60;92.40;;;;;;5052719;28;20167;-69
2022/07/03 05:52:17;;;;;;;2.97;2.77;;;24.90;92.40;;;;;;5052636;28;20183;-69
2022/07/03 05:54:42;;;;;;;2.63;2.43;;;24.50;93.10;;;;;;5052536;28;20162;-69
2022/07/03 05:57:08;;;;;;;2.93;2.10;;;24.90;93.20;;;;;;5052585;28;20669;-69
2022/07/03 05:59:34;;;;;;;1.90;1.70;;;25.70;91.60;;;;;;5052309;28;20629;-69
2022/07/03 06:01:59;;;;;;;2.37;1.77;;;26.00;91.40;;;;;;5052904;28;20171;-69
2022/07/03 06:04:25;;;;;;;2.40;1.80;;;26.20;89.30;;;;;;5052895;28;20252;-69
2022/07/03 06:06:51;;;;;;;2.50;2.30;;;25.50;90.30;;;;;;5052761;28;20190;-69
2022/07/03 06:09:16;;;;;;;2.13;1.93;;;24.90;91.30;;;;;;5052427;28;20293;-69
2022/07/03 06:11:42;;;;;;;1.87;1.77;;;25.70;90.90;;;;;;5052756;28;20171;-71
2022/07/03 06:14:08;;;;;;;1.90;1.80;;;26.00;90.20;;;;;;5052815;28;20198;-71
2022/07/03 06:16:33;;;;;;;1.83;1.73;;;26.90;87.60;;;;;;5053083;28;20170;-70
2022/07/03 06:18:59;;;;;;;3.10;2.07;;;26.10;89.70;;;;;;5053890;28;20183;-69
2022/07/03 06:21:25;;;;;;;1.93;1.80;;;27.80;84.10;;;;;;5052415;28;20179;-69
2022/07/03 06:23:50;;;;;;;1.83;1.73;;;27.00;85.30;;;;;;5052397;28;20225;-69
2022/07/03 06:26:16;;;;;;;2.53;1.97;;;27.10;84.20;;;;;;5052123;28;20179;-69
2022/07/03 06:28:42;;;;;;;2.03;1.93;;;26.10;87.10;;;;;;5053776;28;20206;-69
2022/07/03 06:31:08;;;;;;;2.27;1.83;;;27.40;82.50;;;;;;5057680;28;20406;-69
2022/07/03 06:33:34;;;;;;;2.40;2.10;;;27.50;81.40;;;;;;5057110;28;20429;-69
2022/07/03 06:35:59;;;;;;;1.87;1.77;;;27.40;82.30;;;;;;5052250;28;20166;-69
2022/07/03 06:38:25;;;;;;;3.70;2.07;;;27.70;80.80;;;;;;5052263;28;20288;-69
2022/07/03 06:40:51;;;;;;;2.23;2.03;;;28.70;77.70;;;;;;5052197;28;20266;-70
2022/07/03 06:43:16;;;;;;;2.83;2.10;;;27.60;80.50;;;;;;5052063;28;20182;-69
2022/07/03 06:45:42;;;;;;;1.57;1.47;;;28.60;77.10;;;;;;5051780;28;20405;-69
2022/07/03 06:48:07;;;;;;;1.90;1.80;;;28.60;76.40;;;;;;5051881;28;20707;-69
2022/07/03 06:50:33;;;;;;;1.80;1.70;;;29.60;72.70;;;;;;5051928;28;20547;-69
2022/07/03 06:52:59;;;;;;;2.07;1.90;;;28.80;75.00;;;;;;5052004;28;20254;-70
2022/07/03 06:55:24;;;;;;;2.50;1.80;;;29.70;72.60;;;;;;5051686;28;20261;-69
2022/07/03 06:57:50;;;;;;;1.67;1.57;;;28.60;75.30;;;;;;5051770;28;20194;-69
2022/07/03 07:00:15;;;;;;;1.50;1.40;;;28.10;78.30;;;;;;5051796;28;20182;-69
2022/07/03 07:02:41;;;;;;;2.80;2.00;;;28.40;74.90;;;;;;5053395;28;20216;-69
2022/07/03 07:05:07;;;;;;;2.20;2.00;;;29.50;74.30;;;;;;5055672;28;20206;-68
2022/07/03 07:07:32;;;;;;;2.30;1.70;;;29.30;72.90;;;;;;5055612;28;20260;-68
2022/07/03 07:09:58;;;;;;;1.93;1.83;;;29.60;72.00;;;;;;5055783;28;20530;-69
2022/07/03 07:12:25;;;;;;;1.80;1.70;;;29.50;71.50;;;;;;5055423;28;20175;-69
2022/07/03 07:14:51;;;;;;;2.33;1.60;;;29.90;71.20;;;;;;5055540;28;20182;-69
2022/07/03 07:17:16;;;;;;;2.37;2.17;;;29.70;70.50;;;;;;5055538;28;20744;-69
2022/07/03 07:19:42;;;;;;;1.70;1.60;;;28.90;73.00;;;;;;5055707;28;20207;-69
2022/07/03 07:22:07;;;;;;;2.73;1.60;;;30.20;70.20;;;;;;5055511;28;20256;-69
2022/07/03 07:24:33;;;;;;;3.13;1.93;;;29.30;69.70;;;;;;5055378;28;20182;-69
2022/07/03 07:26:59;;;;;;;1.97;1.87;;;28.10;75.30;;;;;;5055234;28;20285;-69
2022/07/03 07:29:25;;;;;;;2.53;2.00;;;29.00;73.50;;;;;;5055502;28;20521;-70
2022/07/03 07:31:50;;;;;;;2.00;1.80;;;30.20;70.30;;;;;;5055355;28;20412;-69
2022/07/03 07:34:16;;;;;;;2.70;1.60;;;30.00;69.70;;;;;;5055420;28;20163;-69
2022/07/03 07:36:42;;;;;;;1.87;1.77;;;30.00;69.10;;;;;;5055137;28;20171;-69
2022/07/03 07:39:07;;;;;;;1.70;1.60;;;29.50;71.70;;;;;;5055370;28;20224;-69
2022/07/03 07:41:33;;;;;;;1.70;1.60;;;28.60;71.30;;;;;;5055258;28;20198;-69
2022/07/03 07:43:58;;;;;;;1.60;1.50;;;30.50;67.50;;;;;;5055771;28;20177;-69
2022/07/03 07:46:24;;;;;;;2.30;1.90;;;29.40;70.20;;;;;;5055059;28;20178;-69
2022/07/03 07:48:50;;;;;;;1.80;1.70;;;30.30;67.80;;;;;;5055213;28;20206;-69
2022/07/03 07:51:16;;;;;;;2.00;1.90;;;31.20;66.00;;;;;;5055127;28;20170;-69
2022/07/03 07:53:41;;;;;;;1.67;1.57;;;30.00;67.90;;;;;;5055031;28;20197;-69
2022/07/03 07:56:07;;;;;;;1.73;1.63;;;29.50;68.70;;;;;;5055008;28;20171;-69
2022/07/03 07:58:32;;;;;;;1.83;1.73;;;30.00;68.60;;;;;;5054942;28;20549;-69
2022/07/03 08:06:26;;;;;;;2.80;1.90;;;30.80;64.20;;;;;;5054557;28;20419;-68
2022/07/03 08:08:52;;;;;;;1.50;1.30;;;30.70;63.70;;;;;;5054500;28;21022;-69
2022/07/03 08:11:17;;;;;;;1.83;1.67;;;30.10;64.40;;;;;;5054518;28;20175;-68
2022/07/03 08:13:43;;;;;;;2.47;1.50;;;30.60;63.70;;;;;;5055765;28;20163;-69
2022/07/03 08:16:09;;;;;;;1.70;1.60;;;30.10;63.70;;;;;;5059064;28;20170;-69
2022/07/03 08:18:35;;;;;;;1.70;1.60;;;29.70;64.80;;;;;;5060102;28;20209;-69
2022/07/03 08:21:00;;;;;;;1.73;1.63;;;30.00;65.20;;;;;;5054383;28;20425;-69
2022/07/03 08:23:26;;;;;;;2.10;1.90;;;29.80;66.30;;;;;;5054294;28;20171;-69
2022/07/03 08:25:51;;;;;;;2.20;1.77;;;29.80;65.30;;;;;;5054095;28;20637;-68
2022/07/03 08:28:17;;;;;;;1.63;1.53;;;30.00;63.20;;;;;;5054380;28;20285;-70
2022/07/03 08:30:42;;;;;;;1.50;1.40;;;29.90;62.60;;;;;;5054195;28;20210;-70
2022/07/03 08:33:08;;;;;;;1.77;1.67;;;30.20;62.80;;;;;;5054165;28;20175;-69
2022/07/03 08:35:33;;;;;;;1.60;1.30;;;30.50;61.90;;;;;;5053772;28;20210;-69
2022/07/03 08:37:59;;;;;;;1.67;1.57;;;31.10;61.40;;;;;;5054048;28;20566;-69
2022/07/03 08:40:25;;;;;;;1.53;1.43;;;30.10;63.70;;;;;;5054162;28;20258;-69
2022/07/03 08:42:56;;;;;;;1.70;1.60;;;31.10;60.20;;;;;;5054142;28;20257;-69
2022/07/03 08:45:23;;;;;;;2.60;2.13;;;31.00;60.50;;;;;;5053826;28;20170;-69
2022/07/03 08:47:52;;;;;;;1.80;1.70;;;30.40;60.50;;;;;;5053664;28;20457;-70
2022/07/03 08:50:19;;;;;;;1.60;1.50;;;29.80;61.00;;;;;;5053819;28;20416;-69
2022/07/03 08:52:46;;;;;;;1.60;1.50;;;31.10;59.60;;;;;;5053892;28;20906;-69
2022/07/03 08:55:16;;;;;;;1.67;1.57;;;29.70;62.70;;;;;;5053633;28;20406;-69
2022/07/03 08:57:43;;;;;;;1.40;1.30;;;29.50;62.40;;;;;;5053967;28;20421;-69
2022/07/03 09:00:14;;;;;;;1.90;1.80;;;29.40;63.60;;;;;;5053829;28;20413;-69
2022/07/03 09:02:43;;;;;;;1.70;1.40;;;29.90;61.50;;;;;;5053650;28;20783;-69
2022/07/03 09:05:10;;;;;;;1.60;1.50;;;30.80;59.50;;;;;;5053595;28;20413;-69
2022/07/03 09:07:37;;;;;;;1.43;1.30;;;30.20;59.70;;;;;;5053717;28;20454;-69
2022/07/03 09:10:08;;;;;;;1.40;1.30;;;30.80;59.80;;;;;;5053782;28;20433;-69
2022/07/03 09:12:34;;;;;;;1.83;1.50;;;29.70;62.80;;;;;;5053703;28;20405;-69
2022/07/03 09:15:01;;;;;;;1.67;1.57;;;31.10;59.40;;;;;;5053300;28;20405;-69
2022/07/03 09:17:29;;;;;;;1.63;1.53;;;31.60;58.10;;;;;;5053235;28;20887;-69
2022/07/03 09:19:58;;;;;;;1.63;1.53;;;30.50;58.70;;;;;;5053574;28;20420;-69
2022/07/03 09:22:25;;;;;;;1.40;1.30;;;30.80;58.30;;;;;;5053821;28;20480;-70
2022/07/03 09:25:03;;;;;;;1.60;1.50;;;31.00;57.80;;;;;;5053004;28;20471;-69
2022/07/03 09:27:29;;;;;;;1.63;1.53;;;31.40;58.50;;;;;;5055333;28;20460;-68
2022/07/03 09:30:00;;;;;;;1.57;1.47;;;31.90;56.50;;;;;;5054574;28;21046;-69
2022/07/03 09:32:50;;;;;;;2.43;2.10;;;31.00;58.10;;;;;;5053461;28;20245;-70
2022/07/03 09:35:17;;;;;;;2.00;1.90;;;30.40;58.50;;;;;;5053913;28;20496;-70
2022/07/03 09:37:53;;;;;;;1.80;1.70;;;30.30;59.10;;;;;;5053563;28;20421;-70
2022/07/03 09:40:19;;;;;;;1.67;1.57;;;30.40;59.20;;;;;;5054153;28;20507;-68
2022/07/03 09:42:57;;;;;;;1.50;1.40;;;30.50;59.60;;;;;;5053382;28;20438;-69
2022/07/03 09:45:23;;;;;;;1.50;1.40;;;31.40;56.80;;;;;;5052675;28;20409;-68
2022/07/03 09:47:48;;;;;;;1.63;1.50;;;31.00;57.10;;;;;;5052544;28;20456;-69
2022/07/03 09:50:15;;;;;;;1.80;1.70;;;30.80;57.60;;;;;;5052693;28;20253;-69
2022/07/03 09:52:43;;;;;;;1.63;1.50;;;31.10;56.90;;;;;;5052197;28;20167;-69
2022/07/03 09:55:08;;;;;;;2.30;1.60;;;30.60;57.60;;;;;;5052305;28;20406;-68
2022/07/03 09:57:35;;;;;;;1.60;1.50;;;30.00;58.80;;;;;;5052555;28;20519;-69
2022/07/03 10:00:21;;;;;;;1.90;1.80;;;30.20;59.40;;;;;;5052455;28;20253;-69
2022/07/03 10:02:53;;;;;;;1.97;1.87;;;31.00;58.10;;;;;;5053910;28;20409;-69
2022/07/03 10:05:21;;;;;;;1.47;1.37;;;30.50;58.80;;;;;;5060045;28;20504;-69
2022/07/03 10:07:51;;;;;;;1.93;1.23;;;30.60;60.30;;;;;;5052219;28;20444;-70
2022/07/03 10:10:19;;;;;;;1.50;1.40;;;30.60;59.30;;;;;;5052088;28;20854;-70
2022/07/03 10:12:46;;;;;;;4.20;1.40;;;29.90;58.30;;;;;;5052310;28;20915;-69
2022/07/03 10:15:13;;;;;;;1.60;1.50;;;30.30;58.60;;;;;;5051953;28;20415;-69
2022/07/03 10:17:40;;;;;;;1.87;1.77;;;30.30;57.80;;;;;;5051720;28;20839;-69
2022/07/03 10:20:06;;;;;;;2.20;2.00;;;29.60;58.10;;;;;;5051908;28;20408;-69
2022/07/03 10:22:38;;;;;;;2.10;1.90;;;29.80;58.60;;;;;;5051633;28;20439;-69
2022/07/03 10:25:05;;;;;;;3.73;2.17;;;29.50;59.90;;;;;;5051893;28;20914;-69
2022/07/03 10:27:31;;;;;;;2.70;2.00;;;29.60;62.60;;;;;;5051634;28;20967;-69
2022/07/03 10:29:58;;;;;;;2.20;2.10;;;29.60;60.40;;;;;;5051633;28;20908;-69
2022/07/03 10:32:26;;;;;;;1.60;1.50;;;29.50;60.50;;;;;;5051885;28;20431;-70
2022/07/03 10:34:52;;;;;;;1.70;1.60;;;29.50;60.00;;;;;;5051570;28;20406;-69
2022/07/03 10:37:21;;;;;;;1.80;1.70;;;29.30;60.40;;;;;;5050420;28;20451;-69
2022/07/03 10:46:17;;;;;;;2.03;1.90;;;28.40;61.20;;;;;;5051693;28;20444;-69
2022/07/03 10:48:57;;;;;;;2.33;1.63;;;28.40;62.80;;;;;;5051428;28;20453;-69
2022/07/03 10:51:23;;;;;;;2.07;1.87;;;28.30;62.20;;;;;;5051873;28;20814;-70
2022/07/03 10:53:49;;;;;;;1.83;1.73;;;28.50;62.10;;;;;;5051822;28;20775;-69
2022/07/03 10:56:15;;;;;;;1.90;1.70;;;28.60;63.00;;;;;;5051716;28;20412;-70
2022/07/03 10:58:57;;;;;;;1.70;1.60;;;28.60;63.10;;;;;;5051795;28;20188;-69
2022/07/03 11:01:30;;;;;;;2.97;2.40;;;28.70;63.40;;;;;;5051220;28;20789;-69
2022/07/03 11:04:00;;;;;;;2.40;2.03;;;28.50;63.60;;;;;;5051437;28;20408;-69
2022/07/03 11:06:44;;;;;;;2.30;2.10;;;28.40;63.90;;;;;;5051251;28;20492;-69
2022/07/03 11:09:11;;;;;;;1.87;1.70;;;29.00;65.50;;;;;;5051270;28;20455;-69
2022/07/03 11:11:54;;;;;;;1.90;1.80;;;28.40;62.00;;;;;;5051107;28;20402;-69
2022/07/03 11:14:26;;;;;;;1.60;1.50;;;28.80;63.00;;;;;;5051255;28;20404;-69
2022/07/03 11:17:20;;;;;;;2.40;2.20;;;28.80;63.20;;;;;;5051029;28;20475;-70
2022/07/03 11:20:23;;;;;;;2.03;1.90;;;28.70;62.60;;;;;;5050978;28;20403;-69
2022/07/03 11:23:12;;;;;;;2.17;1.97;;;28.70;62.60;;;;;;5050807;28;20423;-69
2022/07/03 11:25:41;;;;;;;1.97;1.87;;;27.90;63.80;;;;;;5050563;28;20905;-69
2022/07/03 11:28:07;;;;;;;1.80;1.70;;;27.90;65.30;;;;;;5050967;28;20452;-69
2022/07/03 11:30:33;;;;;;;2.23;2.03;;;28.10;63.80;;;;;;5051095;28;20457;-70
2022/07/03 11:33:00;;;;;;;2.10;1.90;;;28.20;64.50;;;;;;5051295;28;20487;-69
2022/07/03 11:35:48;;;;;;;1.60;1.50;;;28.50;64.70;;;;;;5051236;28;20422;-69
2022/07/03 11:38:26;;;;;;;2.90;2.03;;;28.90;63.90;;;;;;5050966;28;20617;-69
2022/07/03 11:40:54;;;;;;;2.53;1.83;;;29.10;64.50;;;;;;5050839;28;20410;-68
2022/07/03 11:43:20;;;;;;;1.80;1.70;;;29.20;62.40;;;;;;5051033;28;20405;-69
2022/07/03 11:45:49;;;;;;;2.27;2.10;;;29.10;62.20;;;;;;5050819;28;20463;-69
2022/07/03 11:48:17;;;;;;;1.93;1.83;;;29.20;59.90;;;;;;5052110;28;20484;-69
2022/07/03 11:50:44;;;;;;;2.10;1.70;;;29.00;60.10;;;;;;5060277;28;20399;-69
2022/07/03 11:53:16;;;;;;;1.90;1.80;;;28.80;61.50;;;;;;5056933;28;20465;-70
2022/07/03 11:55:55;;;;;;;1.77;1.67;;;28.70;60.70;;;;;;5054481;28;20434;-70
2022/07/03 11:58:21;;;;;;;2.00;1.83;;;28.90;61.50;;;;;;5054362;28;20458;-70
2022/07/03 12:00:47;;;;;;;1.77;1.67;;;29.20;60.90;;;;;;5054408;28;20404;-70
2022/07/03 12:03:25;;;;;;;2.30;2.20;;;28.80;60.80;;;;;;5054533;28;20415;-70
2022/07/03 12:05:56;;;;;;;1.93;1.83;;;28.80;60.90;;;;;;5054280;28;20178;-68
2022/07/03 12:08:23;;;;;;;2.40;2.20;;;28.90;61.30;;;;;;5054654;28;20488;-69
2022/07/03 12:10:49;;;;;;;2.07;1.87;;;28.60;61.30;;;;;;5054564;28;20397;-69
2022/07/03 12:13:22;;;;;;;2.10;1.73;;;28.70;60.50;;;;;;5054446;28;20419;-70
2022/07/03 12:15:49;;;;;;;2.07;1.50;;;28.70;60.30;;;;;;5054342;28;20163;-69
2022/07/03 12:18:15;;;;;;;1.50;1.37;;;29.10;60.40;;;;;;5075457;22;20886;-68
2022/07/03 12:20:41;;;;;;;1.47;1.37;;;29.30;59.30;;;;;;5054203;28;20418;-68
2022/07/03 12:23:07;;;;;;;1.40;1.30;;;29.00;59.30;;;;;;5054322;28;20774;-68
2022/07/03 12:25:39;;;;;;;1.70;1.60;;;29.30;58.90;;;;;;5054096;28;20429;-68
2022/07/03 12:28:06;;;;;;;1.73;1.63;;;29.50;58.90;;;;;;5054285;28;20465;-68
2022/07/03 12:30:32;;;;;;;2.07;1.70;;;29.50;58.80;;;;;;5054012;28;20406;-69
2022/07/03 12:32:58;;;;;;;2.10;1.47;;;29.30;59.00;;;;;;5053868;28;20404;-68
2022/07/03 12:35:25;;;;;;;1.60;1.50;;;29.10;59.40;;;;;;5054021;28;20817;-68
2022/07/03 12:37:50;;;;;;;1.60;1.50;;;29.30;59.30;;;;;;5054208;28;20429;-68
2022/07/03 12:40:17;;;;;;;1.80;1.50;;;29.20;58.50;;;;;;5054050;28;20402;-69
2022/07/03 12:42:47;;;;;;;1.53;1.43;;;29.20;59.10;;;;;;5054294;28;20183;-68
2022/07/03 12:45:15;;;;;;;1.60;1.50;;;29.60;59.60;;;;;;5053790;28;20413;-68
2022/07/03 12:47:41;;;;;;;1.83;1.40;;;29.80;59.00;;;;;;5053506;28;20445;-68
2022/07/03 12:50:08;;;;;;;1.30;1.20;;;29.90;59.30;;;;;;5053919;28;20819;-68
2022/07/03 12:52:48;;;;;;;1.67;1.57;;;30.50;58.40;;;;;;5053961;28;20476;-68
2022/07/03 12:55:26;;;;;;;2.90;2.00;;;30.60;57.90;;;;;;5053663;28;20405;-68
2022/07/03 13:00:59;;;;;;;1.60;1.50;;;30.50;57.10;;;;;;5052650;28;20396;-69
2022/07/03 13:03:35;;;;;;;1.47;1.37;;;30.50;56.80;;;;;;5053715;28;20401;-69
2022/07/03 13:06:01;;;;;;;1.47;1.37;;;30.30;56.00;;;;;;5053575;28;20640;-68
2022/07/03 13:08:27;;;;;;;1.67;1.37;;;30.40;56.40;;;;;;5053399;28;20484;-69
2022/07/03 13:10:59;;;;;;;2.47;2.27;;;30.50;56.40;;;;;;5035724;28;20174;-69
2022/07/03 13:13:26;;;;;;;1.53;1.43;;;30.20;57.00;;;;;;5053535;28;20248;-69